createdAt,value
2023-03-24T00:02:07.703Z,133.20
2023-03-24T00:04:37.014Z,130.80
2023-03-24T00:08:07.819Z,127.88
2023-03-24T00:11:04.600Z,135.35
2023-03-24T00:13:38.423Z,134.98
2023-03-24T00:16:12.538Z,127.97
2023-03-24T00:18:41.656Z,128.90
2023-03-24T00:21:11.829Z,141.23
2023-03-24T00:23:43.933Z,139.73
2023-03-24T00:26:15.529Z,138.43
2023-03-24T00:28:49.424Z,140.70
2023-03-24T00:31:19.050Z,144.02
2023-03-24T00:33:51.413Z,146.70
2023-03-24T00:36:22.239Z,135.87
2023-03-24T00:38:50.685Z,134.73
2023-03-24T00:41:20.665Z,141.90
2023-03-24T00:43:50.466Z,130.97
2023-03-24T00:46:28.236Z,137.65
2023-03-24T00:49:03.938Z,128.95
2023-03-24T00:51:39.716Z,136.38
2023-03-24T00:54:10.721Z,137.00
2023-03-24T00:59:11.034Z,136.65
2023-03-24T01:01:41.479Z,134.98
2023-03-24T01:04:10.769Z,143.52
2023-03-24T01:06:41.305Z,144.10
2023-03-24T01:09:10.867Z,146.82
2023-03-24T01:11:41.659Z,135.18
2023-03-24T01:21:54.594Z,135.73
2023-03-24T01:24:25.743Z,138.20
2023-03-24T01:26:54.250Z,143.32
2023-03-24T01:29:22.527Z,151.70
2023-03-24T01:31:51.234Z,139.07
2023-03-24T01:34:20.216Z,147.50
2023-03-24T01:36:49.633Z,140.90
2023-03-24T01:39:18.118Z,157.02
2023-03-24T01:41:46.354Z,134.93
2023-03-24T01:44:46.940Z,140.95
2023-03-24T01:47:15.963Z,139.00
2023-03-24T01:49:47.397Z,156.90
2023-03-24T01:52:23.125Z,145.65
2023-03-24T01:55:08.172Z,132.73
2023-03-24T01:57:47.327Z,135.00
2023-03-24T02:00:18.488Z,135.77
2023-03-24T02:03:24.142Z,140.45
2023-03-24T02:06:04.956Z,144.32
2023-03-24T02:10:23.691Z,139.07
2023-03-24T02:12:52.002Z,137.57
2023-03-24T02:15:21.220Z,136.27
2023-03-24T03:55:01.068Z,16.38
2023-03-24T03:57:29.752Z,17.45
2023-03-24T04:00:20.682Z,17.67
2023-03-24T04:04:08.108Z,16.05
2023-03-24T04:07:24.547Z,15.02
2023-03-24T04:10:31.343Z,17.85
2023-03-24T04:13:28.590Z,16.33
2023-03-24T04:16:33.074Z,18.20
2023-03-24T04:19:46.852Z,16.23
2023-03-24T04:22:26.757Z,16.65
2023-03-24T04:25:29.603Z,16.40
2023-03-24T04:28:10.158Z,16.55
2023-03-24T04:30:45.966Z,13.85
2023-03-24T04:33:48.843Z,17.25
2023-03-24T04:36:35.257Z,17.52
2023-03-24T04:39:28.341Z,16.38
2023-03-24T04:42:04.413Z,14.25
2023-03-24T04:44:33.829Z,15.52
2023-03-24T04:47:32.171Z,13.32
2023-03-24T04:50:31.552Z,15.40
2023-03-24T04:53:04.303Z,14.30
2023-03-24T04:55:37.889Z,14.25
2023-03-24T04:58:06.256Z,14.60
2023-03-24T05:00:36.975Z,15.30
2023-03-24T05:03:05.522Z,15.97
2023-03-24T05:05:34.117Z,15.32
2023-03-24T05:08:02.176Z,15.05
2023-03-24T05:10:30.401Z,15.05
2023-03-24T05:12:59.030Z,15.27
2023-03-24T05:15:27.379Z,16.63
2023-03-24T05:18:07.351Z,16.30
2023-03-24T05:20:35.378Z,15.55
2023-03-24T05:23:13.889Z,17.02
2023-03-24T05:25:45.894Z,15.47
2023-03-24T05:28:14.556Z,16.27
2023-03-24T05:30:43.519Z,15.27
2023-03-24T05:33:24.997Z,15.10
2023-03-24T05:35:53.164Z,15.13
2023-03-24T05:38:21.464Z,17.10
2023-03-24T05:40:58.556Z,16.88
2023-03-24T05:43:30.903Z,16.13
2023-03-24T05:46:08.935Z,15.77
2023-03-24T05:48:37.196Z,14.93
2023-03-24T05:51:15.161Z,15.10
2023-03-24T05:53:43.665Z,15.82
2023-03-24T05:56:32.882Z,14.85
2023-03-24T05:59:22.856Z,15.98
2023-03-24T06:01:56.997Z,14.85
2023-03-24T06:04:32.810Z,16.10
2023-03-24T06:07:09.509Z,15.88
2023-03-24T06:09:42.615Z,16.42
2023-03-24T06:12:16.424Z,17.27
2023-03-24T06:14:56.157Z,15.90
2023-03-24T06:17:25.952Z,16.10
2023-03-24T06:20:04.916Z,15.23
2023-03-24T06:22:46.169Z,16.65
2023-03-24T06:25:20.934Z,16.83
2023-03-24T06:28:06.885Z,15.77
2023-03-24T06:30:35.157Z,17.73
2023-03-24T06:33:08.247Z,18.70
2023-03-24T06:35:37.719Z,17.65
2023-03-24T06:38:09.873Z,17.70
2023-03-24T06:40:38.707Z,18.48
2023-03-24T06:43:07.991Z,19.38
2023-03-24T06:45:40.304Z,17.45
2023-03-24T06:48:12.352Z,18.77
2023-03-24T06:50:41.334Z,17.45
2023-03-24T06:53:11.572Z,19.08
2023-03-24T06:55:40.327Z,16.35
2023-03-24T06:58:10.587Z,17.77
2023-03-24T07:01:00.418Z,15.90
2023-03-24T07:03:34.280Z,15.75
2023-03-24T07:06:18.856Z,17.05
2023-03-24T07:08:52.563Z,15.38
2023-03-24T07:11:23.652Z,16.55
2023-03-24T07:13:55.484Z,18.40
2023-03-24T07:16:24.230Z,17.63
2023-03-24T07:19:04.953Z,16.38
2023-03-24T07:21:37.409Z,16.70
2023-03-24T07:24:07.289Z,16.00
2023-03-24T07:26:55.262Z,16.92
2023-03-24T07:29:25.733Z,17.95
2023-03-24T07:32:19.767Z,21.67
2023-03-24T07:34:50.788Z,18.05
2023-03-24T07:37:19.143Z,19.17
2023-03-24T07:39:47.929Z,18.63
2023-03-24T07:42:16.811Z,18.38
2023-03-24T07:45:14.289Z,18.20
2023-03-24T07:47:46.810Z,17.83
2023-03-24T07:50:15.731Z,18.05
2023-03-24T07:52:49.709Z,16.33
2023-03-24T07:55:21.467Z,17.90
2023-03-24T07:58:00.264Z,17.23
2023-03-24T08:00:32.909Z,16.63
2023-03-24T08:03:14.808Z,16.05
2023-03-24T08:06:01.224Z,15.93
2023-03-24T08:08:41.350Z,15.68
2023-03-24T08:11:09.727Z,15.45
2023-03-24T08:13:38.365Z,14.57
2023-03-24T08:16:07.216Z,14.98
2023-03-24T08:18:36.029Z,13.95
2023-03-24T08:21:05.205Z,13.43
2023-03-24T08:23:33.794Z,13.32
2023-03-24T08:26:05.212Z,13.02
2023-03-24T08:28:33.549Z,13.02
2023-03-24T08:31:01.847Z,13.15
2023-03-24T08:33:30.195Z,11.90
2023-03-24T08:36:01.060Z,46.42
2023-03-24T08:38:32.921Z,11.38
2023-03-24T08:41:06.983Z,10.43
2023-03-24T08:43:38.186Z,10.30
2023-03-24T08:46:11.216Z,10.98
2023-03-24T08:48:41.551Z,11.05
2023-03-24T08:51:14.922Z,10.40
2023-03-24T08:53:43.841Z,9.65
2023-03-24T08:56:12.014Z,10.43
2023-03-24T08:58:40.744Z,10.07
2023-03-24T09:01:10.098Z,10.93
2023-03-24T09:03:40.100Z,10.05
2023-03-24T09:06:09.396Z,9.77
2023-03-24T09:08:38.595Z,9.85
2023-03-24T09:11:14.050Z,8.77
2023-03-24T09:13:43.145Z,8.77
2023-03-24T09:16:11.803Z,8.95
2023-03-24T09:18:40.511Z,9.48
2023-03-24T09:21:09.389Z,9.85
2023-03-24T09:23:38.026Z,9.85
2023-03-24T09:26:07.600Z,9.20
2023-03-24T09:28:36.835Z,10.00
2023-03-24T09:31:07.155Z,8.68
2023-03-24T09:33:35.874Z,9.45
2023-03-24T09:36:05.699Z,8.48
2023-03-24T09:38:35.313Z,8.90
2023-03-24T09:41:23.398Z,8.57
2023-03-24T09:43:55.235Z,8.85
2023-03-24T09:46:47.648Z,10.48
2023-03-24T09:49:30.684Z,9.40
2023-03-24T09:52:09.854Z,8.80
2023-03-24T09:54:49.047Z,9.63
2023-03-24T09:57:38.129Z,9.82
2023-03-24T10:00:32.898Z,8.18
2023-03-24T10:03:26.163Z,9.50
2023-03-24T10:06:26.126Z,8.65
2023-03-24T10:09:32.315Z,8.60
2023-03-24T10:12:27.710Z,7.97
2023-03-24T10:15:37.122Z,7.72
2023-03-24T10:18:29.534Z,8.10
2023-03-24T10:21:14.931Z,10.23
2023-03-24T10:24:14.145Z,9.05
2023-03-24T10:27:16.414Z,10.00
2023-03-24T10:29:46.768Z,9.77
2023-03-24T10:32:25.006Z,10.27
2023-03-24T10:35:09.809Z,10.00
2023-03-24T10:37:38.626Z,8.52
2023-03-24T10:40:18.760Z,9.27
2023-03-24T10:43:06.987Z,9.30
2023-03-24T10:45:44.253Z,10.05
2023-03-24T10:48:14.879Z,10.88
2023-03-24T10:50:49.195Z,10.13
2023-03-24T10:53:20.087Z,11.13
2023-03-24T10:55:49.242Z,10.25
2023-03-24T10:58:41.914Z,11.07
2023-03-24T11:01:31.848Z,10.55
2023-03-24T11:04:05.633Z,10.05
2023-03-24T11:06:34.609Z,9.18
2023-03-24T11:09:22.227Z,8.82
2023-03-24T11:11:52.630Z,9.48
2023-03-24T11:14:29.142Z,10.60
2023-03-24T11:17:12.928Z,9.80
2023-03-24T11:19:51.505Z,10.45
2023-03-24T11:25:13.745Z,9.77
2023-03-24T11:27:45.949Z,9.95
2023-03-24T11:30:16.067Z,11.32
2023-03-24T11:32:48.705Z,9.32
2023-03-24T11:35:18.845Z,10.98
2023-03-24T11:37:48.452Z,8.27
2023-03-24T11:40:25.197Z,9.73
2023-03-24T11:43:00.851Z,8.02
2023-03-24T11:45:44.287Z,7.63
2023-03-24T11:48:41.792Z,9.95
2023-03-24T11:51:13.002Z,9.98
2023-03-24T11:53:51.932Z,7.90
2023-03-24T11:56:53.200Z,10.32
2023-03-24T12:00:04.377Z,10.57
2023-03-24T12:02:52.788Z,8.07
2023-03-24T12:05:33.314Z,9.65
2023-03-24T12:08:49.570Z,6.85
2023-03-24T12:11:54.497Z,8.65
2023-03-24T12:15:24.723Z,11.57
2023-03-24T12:18:26.298Z,6.35
2023-03-24T12:21:01.645Z,7.05
2023-03-24T12:23:53.167Z,6.63
2023-03-24T12:26:22.980Z,7.35
2023-03-24T12:29:24.465Z,6.78
2023-03-24T12:32:44.377Z,6.68
2023-03-24T12:35:30.888Z,5.30
2023-03-24T12:38:23.082Z,5.57
2023-03-24T12:41:18.864Z,5.93
2023-03-24T12:44:43.550Z,5.25
2023-03-24T12:47:45.445Z,5.88
2023-03-24T12:53:56.306Z,5.93
2023-03-24T12:56:42.479Z,6.57
2023-03-24T12:59:36.521Z,7.22
2023-03-24T13:02:31.738Z,7.78
2023-03-24T13:05:30.687Z,4.57
2023-03-24T13:08:06.017Z,15.30
2023-03-24T13:10:42.351Z,5.18
2023-03-24T13:13:25.299Z,6.97
2023-03-24T13:16:13.336Z,6.72
2023-03-24T13:18:51.426Z,7.22
2023-03-24T13:21:26.987Z,9.23
2023-03-24T13:24:04.111Z,8.25
2023-03-24T13:26:43.554Z,10.18
2023-03-24T13:29:53.605Z,8.95
2023-03-24T13:32:22.582Z,16.90
2023-03-24T13:35:19.160Z,7.32
2023-03-24T13:38:14.207Z,6.88
2023-03-24T13:40:46.132Z,6.60
2023-03-24T13:43:22.770Z,7.97
2023-03-24T13:46:13.973Z,15.50
2023-03-24T13:48:51.906Z,8.68
2023-03-24T13:51:38.363Z,12.07
2023-03-24T13:54:15.991Z,14.07
2023-03-24T13:57:13.162Z,9.13
2023-03-24T13:59:58.535Z,8.15
2023-03-24T14:02:30.266Z,7.95
2023-03-24T14:05:04.152Z,9.60
2023-03-24T14:07:41.605Z,10.52
2023-03-24T14:10:21.333Z,11.38
2023-03-24T14:12:58.407Z,10.02
2023-03-24T14:15:29.722Z,12.15
2023-03-24T14:18:23.595Z,19.65
2023-03-24T14:20:57.759Z,14.25
2023-03-24T14:23:51.689Z,15.13
2023-03-24T14:26:23.373Z,16.00
2023-03-24T14:31:31.619Z,13.93
2023-03-24T14:34:21.386Z,20.63
2023-03-24T14:37:07.813Z,14.75
2023-03-24T14:39:42.039Z,14.73
2023-03-24T14:42:31.800Z,14.80
2023-03-24T14:45:22.253Z,11.68
2023-03-24T14:48:08.202Z,13.30
2023-03-24T14:50:37.195Z,23.95
2023-03-24T14:53:06.408Z,24.70
2023-03-24T14:55:35.161Z,17.25
2023-03-24T14:58:17.979Z,145.52
2023-03-24T15:01:07.016Z,145.93
2023-03-24T15:03:39.463Z,148.18
2023-03-24T15:06:13.760Z,142.38
2023-03-24T15:08:50.270Z,138.23
2023-03-24T15:22:42.172Z,12.32
2023-03-24T15:25:13.680Z,143.45
2023-03-24T15:27:49.455Z,136.93
2023-03-24T15:30:18.262Z,143.98
2023-03-24T15:32:47.859Z,146.27
2023-03-24T15:35:22.723Z,143.30
2023-03-24T15:37:57.502Z,135.48
2023-03-24T15:40:31.131Z,149.70
2023-03-24T15:43:02.591Z,141.75
2023-03-24T15:45:36.347Z,135.50
2023-03-24T15:48:20.780Z,136.82
2023-03-24T15:51:11.799Z,145.38
2023-03-24T15:53:51.753Z,140.27
2023-03-24T15:56:31.937Z,140.90
2023-03-24T15:59:15.225Z,155.67
2023-03-24T16:01:45.324Z,134.60
2023-03-24T16:04:20.737Z,39.28
2023-03-24T16:43:42.086Z,12.70
2023-03-24T16:46:21.357Z,15.18
2023-03-24T16:48:49.641Z,16.77
2023-03-24T16:51:18.509Z,146.23
2023-03-24T16:53:47.087Z,23.25
2023-03-24T16:56:18.307Z,157.23
2023-03-24T16:58:48.224Z,132.73
2023-03-24T17:01:29.495Z,20.65
2023-03-24T17:04:11.115Z,131.52
2023-03-24T17:06:47.626Z,139.60
2023-03-24T17:09:16.979Z,128.45
2023-03-24T17:11:54.637Z,15.75
2023-03-24T17:14:22.911Z,137.18
2023-03-24T17:16:53.497Z,133.07
2023-03-24T17:37:03.126Z,154.52
2023-03-24T17:39:31.247Z,158.07
2023-03-24T17:42:01.534Z,143.88
2023-03-24T17:44:30.132Z,134.13
2023-03-24T17:46:58.575Z,141.25
2023-03-24T17:49:27.220Z,166.32
2023-03-24T18:01:08.128Z,138.32
2023-03-24T18:03:38.383Z,142.88
2023-03-24T18:06:12.740Z,140.95
2023-03-24T18:08:41.612Z,134.23
2023-03-24T18:11:15.677Z,133.60
2023-03-24T18:13:44.387Z,127.65
2023-03-24T18:16:21.363Z,133.45
2023-03-24T18:18:51.967Z,132.60
2023-03-24T18:21:21.201Z,134.27
2023-03-24T18:23:50.382Z,131.13
2023-03-24T18:26:20.445Z,159.00
2023-03-24T18:28:49.227Z,139.45
2023-03-24T18:31:20.761Z,141.38
2023-03-24T18:33:50.520Z,141.13
2023-03-24T18:36:26.925Z,147.93
2023-03-24T18:39:05.511Z,139.65
2023-03-24T18:41:37.325Z,120.10
2023-03-24T18:44:08.987Z,122.50
2023-03-24T18:53:52.814Z,133.85
2023-03-24T22:21:40.894Z,130.57
2023-03-24T22:24:09.941Z,180.43
2023-03-24T22:26:38.601Z,162.38
2023-03-24T22:29:07.588Z,123.55
2023-03-24T22:49:00.764Z,143.65
2023-03-24T22:51:31.680Z,136.47
2023-03-24T22:54:00.413Z,120.03
2023-03-24T22:56:29.479Z,117.87
2023-03-24T22:58:58.966Z,120.30
2023-03-24T23:01:28.167Z,118.50
2023-03-24T23:03:57.045Z,118.53
2023-03-24T23:06:25.353Z,118.47
2023-03-24T23:08:53.939Z,119.88
2023-03-24T23:40:24.661Z,143.70
